Time;durP1;ratioP1;P1;durP2;ratioP2;P2;SDS_P1;SDS_P2;PMS_P1;PMS_P2;Temp;Humidity;BMP_temperature;BMP_pressure;BME280_temperature;BME280_humidity;BME280_pressure;Samples;Min_cycle;Max_cycle;Signal;HPM_P1;HPM_P2
2021/11/28 00:02:17;;;;;;;103.35;38.35;;;;;;;6.84;85.91;98959.88;5091264;28;20024;-21
2021/11/28 00:04:42;;;;;;;131.68;39.10;;;;;;;6.94;85.50;98964.66;5073145;28;20490;-21
2021/11/28 00:07:21;;;;;;;119.03;45.40;;;;;;;6.80;86.34;98958.72;5090751;28;20063;-21
2021/11/28 00:12:37;;;;;;;120.78;42.92;;;;;;;6.94;86.32;98964.66;5090892;28;20542;-21
2021/11/28 00:15:17;;;;;;;103.68;39.97;;;;;;;6.87;86.64;98968.44;5090783;28;20028;-21
2021/11/28 00:17:43;;;;;;;86.78;35.30;;;;;;;6.88;85.54;98954.13;5091151;28;20104;-21
2021/11/28 00:20:11;;;;;;;88.68;33.90;;;;;;;6.91;85.35;98970.41;5090895;28;20113;-21
2021/11/28 00:22:39;;;;;;;;;;;;;;;7.10;84.93;98973.03;5091362;28;20039;-21
2021/11/28 00:25:06;;;;;;;;;;;;;;;7.09;84.78;98974.88;5091476;28;19981;-21
2021/11/28 00:27:31;;;;;;;92.57;35.13;;;;;;;7.12;85.05;98969.13;5090917;28;20889;-22
2021/11/28 00:29:56;;;;;;;85.95;34.83;;;;;;;7.14;84.40;98969.72;5090609;28;20036;-22
2021/11/28 00:32:22;;;;;;;87.38;34.95;;;;;;;7.12;84.42;98978.94;5090460;28;20391;-21
2021/11/28 00:34:47;;;;;;;93.13;37.58;;;;;;;6.67;86.65;98979.25;5090598;28;20049;-21
2021/11/28 00:37:13;;;;;;;97.57;36.28;;;;;;;6.92;86.33;98987.13;5090369;28;20032;-21
2021/11/28 00:39:39;;;;;;;95.70;35.35;;;;;;;6.77;85.74;98959.13;5090653;28;20040;-21
2021/11/28 00:42:06;;;;;;;104.65;38.08;;;;;;;6.86;86.69;98988.00;5071829;28;20412;-21
2021/11/28 00:44:32;;;;;;;98.78;37.13;;;;;;;6.56;87.15;98955.09;5090191;28;20055;-21
2021/11/28 00:46:58;;;;;;;105.15;38.33;;;;;;;6.81;86.36;98973.56;5090536;28;20484;-22
2021/11/28 00:49:25;;;;;;;102.60;37.30;;;;;;;7.00;85.46;98989.47;5090030;28;20143;-21
2021/11/28 00:51:56;;;;;;;98.43;38.40;;;;;;;6.91;85.97;98986.31;5090334;28;20035;-21
2021/11/28 00:54:21;;;;;;;102.75;37.03;;;;;;;6.81;85.75;98962.97;5090079;28;20028;-21
2021/11/28 00:56:46;;;;;;;97.88;36.15;;;;;;;6.78;86.34;98974.03;5090431;28;20096;-23
2021/11/28 00:59:12;;;;;;;98.35;35.50;;;;;;;7.09;85.40;98951.03;5089732;28;20028;-21
2021/11/28 01:01:37;;;;;;;103.78;37.80;;;;;;;7.15;84.54;98959.91;5089893;28;20040;-21
2021/11/28 01:04:03;;;;;;;96.05;37.63;;;;;;;6.80;86.00;98953.41;5090041;28;20403;-21
2021/11/28 01:06:29;;;;;;;100.35;37.60;;;;;;;6.55;87.73;98928.81;5089937;28;20038;-21
2021/11/28 01:08:54;;;;;;;104.53;37.65;;;;;;;6.65;87.38;98945.00;5089959;28;20089;-21
2021/11/28 01:11:22;;;;;;;99.20;38.05;;;;;;;7.00;86.45;98931.94;5089640;28;20496;-21
2021/11/28 01:13:47;;;;;;;101.43;39.30;;;;;;;6.98;85.94;98906.72;5089792;28;20149;-21
2021/11/28 01:16:13;;;;;;;103.80;39.22;;;;;;;7.12;84.85;98921.41;5089630;28;20035;-22
2021/11/28 01:18:38;;;;;;;107.50;39.03;;;;;;;7.11;85.31;98933.06;5089896;28;20035;-22
2021/11/28 01:21:04;;;;;;;96.75;38.55;;;;;;;6.96;85.76;98929.97;5089563;28;20031;-21
2021/11/28 01:23:29;;;;;;;101.15;37.75;;;;;;;7.24;84.73;98903.69;5089676;28;20495;-21
2021/11/28 01:25:55;;;;;;;105.60;38.60;;;;;;;7.42;83.85;98910.00;5071302;28;20064;-21
2021/11/28 01:28:20;;;;;;;102.80;37.05;;;;;;;7.44;83.43;98898.13;5089339;28;20039;-21
2021/11/28 01:30:46;;;;;;;109.18;39.20;;;;;;;7.60;83.01;98888.69;5089431;28;20479;-21
2021/11/28 01:33:12;;;;;;;107.43;39.42;;;;;;;7.69;82.15;98896.31;5089306;28;20040;-21
2021/11/28 01:35:37;;;;;;;99.82;38.53;;;;;;;7.33;82.87;98876.84;5089235;28;20032;-22
2021/11/28 01:38:03;;;;;;;102.75;36.88;;;;;;;7.31;83.93;98869.13;5089432;28;20036;-21
2021/11/28 01:40:29;;;;;;;102.45;38.45;;;;;;;7.36;84.00;98877.22;5089370;28;20039;-21
2021/11/28 01:43:00;;;;;;;94.95;35.72;;;;;;;7.32;83.50;98876.06;5088693;28;20054;-21
2021/11/28 01:45:27;;;;;;;103.63;38.38;;;;;;;7.44;83.35;98870.78;5089300;28;20036;-21
2021/11/28 01:47:53;;;;;;;106.45;38.10;;;;;;;7.77;81.47;98866.78;5089388;28;20040;-21
2021/11/28 01:50:19;;;;;;;103.70;38.60;;;;;;;7.45;82.72;98875.84;5089138;28;20033;-21
2021/11/28 01:52:45;;;;;;;116.43;39.97;;;;;;;7.36;82.36;98863.16;5089401;28;20028;-21
2021/11/28 01:55:12;;;;;;;115.95;38.85;;;;;;;6.82;84.99;98860.41;5088666;28;20024;-21
2021/11/28 01:57:38;;;;;;;107.33;39.63;;;;;;;7.17;84.56;98863.22;5089146;28;20036;-21
2021/11/28 02:00:08;;;;;;;100.78;36.67;;;;;;;7.05;84.80;98870.34;5088982;28;20294;-21
2021/11/28 02:02:34;;;;;;;110.50;38.00;;;;;;;7.21;84.67;98880.31;5088999;28;20031;-21
2021/11/28 02:04:59;;;;;;;102.28;38.80;;;;;;;7.58;83.02;98868.72;5053685;28;20036;-23
2021/11/28 02:07:25;;;;;;;103.65;38.90;;;;;;;7.18;84.24;98867.47;5070732;28;20705;-22
2021/11/28 02:09:50;;;;;;;111.60;39.40;;;;;;;7.48;83.31;98869.28;5070585;28;20036;-21
2021/11/28 02:12:15;;;;;;;108.68;40.22;;;;;;;7.48;82.87;98853.38;5088227;28;20483;-21
2021/11/28 02:14:41;;;;;;;108.75;38.58;;;;;;;7.11;84.44;98850.03;5070584;28;20392;-22
2021/11/28 02:17:06;;;;;;;106.82;38.22;;;;;;;6.82;85.86;98855.13;5088678;28;20086;-22
2021/11/28 02:19:32;;;;;;;103.80;37.60;;;;;;;6.49;87.35;98855.53;5088960;28;20051;-21
2021/11/28 02:21:57;;;;;;;102.03;37.92;;;;;;;6.44;87.74;98822.59;5088443;28;20027;-21
2021/11/28 02:24:23;;;;;;;107.13;37.08;;;;;;;6.77;87.21;98855.81;5088935;28;20028;-21
2021/11/28 02:26:48;;;;;;;121.80;40.42;;;;;;;6.55;87.71;98852.00;5088406;28;20449;-21
2021/11/28 02:29:14;;;;;;;150.38;39.28;;;;;;;6.67;88.30;98860.81;5088493;28;20036;-21
2021/11/28 02:31:39;;;;;;;124.35;41.00;;;;;;;7.10;86.11;98857.19;5088428;28;20024;-21
2021/11/28 02:34:04;;;;;;;122.18;42.17;;;;;;;7.34;84.56;98855.41;5088357;28;20031;-22
2021/11/28 02:36:30;;;;;;;144.98;45.50;;;;;;;6.71;86.24;98840.78;5088350;28;20024;-21
2021/11/28 02:38:55;;;;;;;157.43;44.92;;;;;;;6.59;88.05;98839.94;5088487;28;20584;-21
2021/11/28 02:41:21;;;;;;;144.60;42.45;;;;;;;6.52;88.74;98833.91;5088380;28;20064;-20
2021/11/28 02:43:46;;;;;;;119.97;42.22;;;;;;;6.22;89.85;98839.97;5088282;28;20035;-21
2021/11/28 02:46:12;;;;;;;135.98;42.55;;;;;;;6.39;89.18;98824.28;5088229;28;20036;-21
2021/11/28 02:48:38;;;;;;;141.85;44.42;;;;;;;6.77;87.97;98820.56;5088113;28;20036;-21
2021/11/28 02:51:04;;;;;;;127.03;43.28;;;;;;;7.11;85.79;98827.00;5088100;28;20036;-22
2021/11/28 02:53:29;;;;;;;141.23;44.95;;;;;;;7.06;85.38;98845.44;5088493;28;20032;-21
2021/11/28 02:55:56;;;;;;;122.10;41.47;;;;;;;6.99;85.63;98834.13;5088249;28;20144;-21
2021/11/28 02:58:23;;;;;;;123.53;42.17;;;;;;;7.19;84.23;98832.00;5088482;28;20866;-21
2021/11/28 03:01:01;;;;;;;124.65;43.15;;;;;;;7.43;83.86;98855.88;5088333;28;20058;-21
2021/11/28 03:03:26;;;;;;;126.70;42.10;;;;;;;6.72;86.02;98855.69;5088083;28;20028;-21
2021/11/28 03:05:52;;;;;;;127.35;41.92;;;;;;;6.74;86.51;98861.56;5088171;28;20522;-22
2021/11/28 03:08:17;;;;;;;138.23;42.92;;;;;;;6.86;86.30;98866.09;5088215;28;20058;-21
2021/11/28 03:10:45;;;;;;;126.90;40.42;;;;;;;6.37;87.20;98858.91;5087999;28;20023;-21
2021/11/28 03:13:14;;;;;;;136.10;44.58;;;;;;;6.19;88.98;98856.25;5087794;28;20025;-21
2021/11/28 03:15:40;;;;;;;132.45;41.40;;;;;;;6.06;89.63;98867.81;5088049;28;20039;-21
2021/11/28 03:18:20;;;;;;;146.93;43.75;;;;;;;6.51;88.45;98882.63;5088069;28;20024;-21
2021/11/28 03:20:45;;;;;;;135.65;43.15;;;;;;;6.49;88.79;98871.44;5070606;28;20103;-21
2021/11/28 03:23:12;;;;;;;130.85;43.38;;;;;;;6.61;88.27;98859.06;5087732;28;20387;-21
2021/11/28 03:25:37;;;;;;;141.77;42.25;;;;;;;6.67;88.06;98876.72;5091163;28;20036;-22
2021/11/28 03:28:03;;;;;;;127.63;42.60;;;;;;;6.78;87.35;98875.97;5091887;28;20071;-21
2021/11/28 03:30:29;;;;;;;123.03;41.05;;;;;;;6.77;86.87;98879.66;5091953;28;20028;-21
2021/11/28 03:32:54;;;;;;;139.50;44.30;;;;;;;6.89;86.38;98860.34;5091763;28;20024;-21
2021/11/28 03:35:19;;;;;;;123.00;43.72;;;;;;;6.90;85.92;98856.66;5092047;28;20040;-21
2021/11/28 03:37:45;;;;;;;124.00;43.53;;;;;;;6.98;86.42;98862.44;5073235;28;20070;-21
2021/11/28 03:40:11;;;;;;;117.38;43.95;;;;;;;6.68;86.75;98846.56;5091665;28;20027;-22
2021/11/28 03:42:37;;;;;;;107.45;40.08;;;;;;;7.11;85.59;98845.56;5091150;28;20052;-21
2021/11/28 03:45:05;;;;;;;112.40;41.85;;;;;;;7.46;83.59;98836.88;5091491;28;20510;-21
2021/11/28 03:47:30;;;;;;;;;;;;;;;7.24;83.69;98816.19;5092080;28;20035;-21
2021/11/28 03:49:56;;;;;;;108.47;39.35;;;;;;;7.19;83.57;98808.13;5091487;28;20333;-21
2021/11/28 03:52:21;;;;;;;110.15;38.85;;;;;;;7.11;83.25;98826.19;5091520;28;20028;-21
2021/11/28 03:54:47;;;;;;;103.65;40.72;;;;;;;6.99;83.64;98826.16;5091446;28;20486;-21
2021/11/28 03:57:13;;;;;;;113.13;41.55;;;;;;;7.04;83.54;98810.38;5091078;28;20056;-22
2021/11/28 03:59:38;;;;;;;111.45;41.40;;;;;;;7.09;82.44;98794.63;5091658;28;20028;-22
2021/11/28 04:02:03;;;;;;;118.60;45.42;;;;;;;6.90;83.99;98793.06;5091361;28;20027;-22
2021/11/28 04:04:29;;;;;;;121.68;44.13;;;;;;;6.58;84.82;98799.41;5091335;28;20491;-21
2021/11/28 04:06:54;;;;;;;124.63;48.97;;;;;;;6.41;85.35;98801.84;5090940;28;20031;-21
2021/11/28 04:09:20;;;;;;;138.30;53.95;;;;;;;6.27;85.49;98832.16;5090937;28;20468;-21
2021/11/28 04:11:45;;;;;;;164.27;58.22;;;;;;;6.07;86.85;98831.56;5090889;28;20035;-21
2021/11/28 04:14:11;;;;;;;165.07;55.20;;;;;;;6.47;85.99;98836.41;5090840;28;20039;-21
2021/11/28 04:16:36;;;;;;;126.15;47.05;;;;;;;6.34;86.65;98851.44;5090905;28;20050;-21
2021/11/28 04:19:02;;;;;;;143.00;45.15;;;;;;;6.73;84.25;98830.78;5090660;28;20063;-21
2021/11/28 04:21:27;;;;;;;153.43;48.03;;;;;;;6.32;85.57;98803.19;5090644;28;20028;-21
2021/11/28 04:23:53;;;;;;;174.57;57.08;;;;;;;6.26;86.49;98808.56;5090763;28;20036;-21
2021/11/28 04:26:19;;;;;;;183.27;47.88;;;;;;;6.28;87.36;98791.41;5090750;28;20028;-21
2021/11/28 04:28:44;;;;;;;222.23;46.22;;;;;;;6.52;85.72;98804.75;5090685;28;20038;-21
2021/11/28 04:31:10;;;;;;;238.90;45.65;;;;;;;6.44;86.52;98822.59;5090353;28;20032;-21
2021/11/28 04:33:35;;;;;;;193.75;44.80;;;;;;;6.59;84.82;98832.00;5090708;28;20088;-21
2021/11/28 04:36:01;;;;;;;158.70;42.88;;;;;;;6.44;85.61;98849.06;5090633;28;20032;-21
2021/11/28 04:38:26;;;;;;;142.35;41.25;;;;;;;6.31;85.81;98854.50;5090694;28;20067;-21
2021/11/28 04:40:52;;;;;;;292.52;47.60;;;;;;;6.67;85.66;98858.16;5090822;28;20487;-22
2021/11/28 04:43:17;;;;;;;229.20;45.35;;;;;;;6.24;86.52;98885.56;5090053;28;20129;-21
2021/11/28 04:45:43;;;;;;;251.20;48.95;;;;;;;6.28;86.03;98915.84;5090450;28;20032;-21
2021/11/28 04:48:08;;;;;;;191.20;40.00;;;;;;;5.70;87.67;98916.13;5090518;28;20476;-21
2021/11/28 04:50:34;;;;;;;214.63;42.45;;;;;;;5.33;90.14;98931.81;5090318;28;20035;-21
2021/11/28 04:52:59;;;;;;;204.18;40.50;;;;;;;4.77;92.36;98949.16;5090256;28;20036;-21
2021/11/28 04:55:25;;;;;;;195.40;41.15;;;;;;;4.47;94.28;98960.19;5090119;28;20110;-21
2021/11/28 04:57:50;;;;;;;234.02;43.03;;;;;;;4.54;94.33;98931.16;5090568;28;20039;-21
2021/11/28 05:00:18;;;;;;;275.48;50.10;;;;;;;5.11;93.09;98949.81;5090077;28;20062;-21
2021/11/28 05:02:44;;;;;;;184.23;41.15;;;;;;;5.07;91.56;98933.59;5090076;28;20509;-21
2021/11/28 05:05:09;;;;;;;209.55;46.17;;;;;;;5.30;91.62;98953.41;5089698;28;20040;-21
2021/11/28 05:07:35;;;;;;;179.23;44.30;;;;;;;5.34;90.20;98955.41;5090170;28;20039;-22
2021/11/28 05:10:00;;;;;;;185.35;42.40;;;;;;;5.41;90.03;98977.34;5072017;28;20036;-22
2021/11/28 05:12:26;;;;;;;171.52;47.92;;;;;;;5.72;89.70;98982.84;5089901;28;20428;-22
2021/11/28 05:14:53;;;;;;;162.13;41.85;;;;;;;5.66;89.11;98991.63;5089910;28;20067;-21
2021/11/28 05:17:19;;;;;;;150.30;41.25;;;;;;;5.38;90.18;98992.81;5089724;28;20036;-21
2021/11/28 05:19:44;;;;;;;159.20;41.25;;;;;;;5.43;90.24;98980.59;5071564;28;20724;-21
2021/11/28 05:22:10;;;;;;;181.02;45.40;;;;;;;5.90;89.05;98980.28;5089736;28;20024;-21
2021/11/28 05:24:35;;;;;;;144.02;43.72;;;;;;;5.71;89.01;98989.16;5089588;28;20036;-21
2021/11/28 05:27:01;;;;;;;140.70;43.20;;;;;;;5.64;89.57;98986.56;5089551;28;20047;-21
2021/11/28 05:29:26;;;;;;;139.73;43.10;;;;;;;5.66;89.99;98983.69;5089611;28;20028;-21
2021/11/28 05:31:51;;;;;;;142.80;59.33;;;;;;;6.17;87.95;98986.22;5071287;28;20042;-21
2021/11/28 05:34:17;;;;;;;178.52;82.57;;;;;;;6.24;87.41;98992.25;5089409;28;20024;-21
2021/11/28 05:36:42;;;;;;;254.80;133.93;;;;;;;6.24;86.73;98981.66;5089747;28;20047;-21
2021/11/28 05:39:08;;;;;;;310.35;195.60;;;;;;;5.97;88.29;98988.22;5088973;28;20028;-21
2021/11/28 05:41:33;;;;;;;150.43;74.70;;;;;;;6.12;87.91;98979.94;5088911;28;20056;-21
2021/11/28 05:43:59;;;;;;;171.75;79.70;;;;;;;6.34;86.37;98981.19;5089376;28;20047;-22
2021/11/28 05:46:24;;;;;;;193.18;88.55;;;;;;;6.60;85.41;98979.31;5088919;28;20035;-22
2021/11/28 05:48:50;;;;;;;139.48;66.60;;;;;;;6.86;84.39;98966.78;5089087;28;20658;-22
2021/11/28 05:51:15;;;;;;;123.75;54.08;;;;;;;6.78;84.54;98962.59;5089535;28;20036;-21
2021/11/28 05:53:41;;;;;;;163.75;76.28;;;;;;;6.76;84.75;98976.09;5088978;28;20032;-21
2021/11/28 05:56:06;;;;;;;272.27;134.57;;;;;;;6.46;85.22;98956.59;5088976;28;20093;-21
2021/11/28 05:58:32;;;;;;;212.63;94.32;;;;;;;6.36;86.29;98970.38;5089172;28;20118;-22
2021/11/28 06:00:57;;;;;;;413.77;205.50;;;;;;;6.14;87.32;98976.06;5089186;28;20129;-21
2021/11/28 06:03:23;;;;;;;177.25;70.72;;;;;;;6.35;86.32;98966.91;5088519;28;20027;-21
2021/11/28 06:05:48;;;;;;;137.88;57.38;;;;;;;6.51;85.55;98970.03;5070759;28;20093;-21
2021/11/28 06:08:14;;;;;;;120.05;47.65;;;;;;;6.75;84.84;99003.59;5054003;28;20448;-21
2021/11/28 06:10:39;;;;;;;118.43;45.85;;;;;;;6.91;84.50;98998.75;5088737;28;20423;-21
2021/11/28 06:13:05;;;;;;;125.82;53.47;;;;;;;6.82;84.51;98977.84;5088419;28;20062;-21
2021/11/28 06:15:31;;;;;;;122.72;52.00;;;;;;;6.83;84.39;98984.75;5088997;28;20032;-21
2021/11/28 06:17:56;;;;;;;131.68;59.85;;;;;;;6.98;84.70;98987.03;5088489;28;20039;-21
2021/11/28 06:20:22;;;;;;;124.00;48.88;;;;;;;7.00;84.52;98997.41;5070376;28;20105;-22
2021/11/28 06:22:47;;;;;;;119.00;47.30;;;;;;;7.04;84.06;99006.53;5088673;28;20031;-21
2021/11/28 06:25:12;;;;;;;155.13;92.57;;;;;;;6.77;84.35;99012.13;5088574;28;20039;-22
2021/11/28 06:27:38;;;;;;;144.73;68.60;;;;;;;6.84;85.25;99018.19;5088586;28;20028;-21
2021/11/28 06:30:05;;;;;;;112.88;51.83;;;;;;;7.04;84.04;99027.75;5088663;28;20107;-22
2021/11/28 06:32:31;;;;;;;134.02;72.60;;;;;;;6.91;84.50;99017.31;5088529;28;20526;-21
2021/11/28 06:34:56;;;;;;;114.32;56.50;;;;;;;6.88;85.06;98993.88;5070785;28;20044;-21
2021/11/28 06:37:22;;;;;;;95.65;45.30;;;;;;;7.12;84.30;99008.91;5070064;28;20035;-21
2021/11/28 06:39:47;;;;;;;111.45;61.85;;;;;;;7.06;84.31;99008.97;5088298;28;20047;-22
2021/11/28 06:42:13;;;;;;;100.80;43.50;;;;;;;7.11;83.19;98996.69;5087995;28;20044;-21
2021/11/28 06:44:38;;;;;;;93.90;43.28;;;;;;;7.47;81.78;98995.00;5088735;28;20040;-21
2021/11/28 06:47:04;;;;;;;102.00;45.97;;;;;;;7.40;82.51;99003.03;5087991;28;20810;-21
2021/11/28 06:49:29;;;;;;;95.10;40.97;;;;;;;7.41;82.36;99011.81;5088211;28;20114;-21
2021/11/28 06:51:55;;;;;;;101.45;42.40;;;;;;;7.25;82.42;98997.31;5088232;28;20483;-21
2021/11/28 06:54:21;;;;;;;107.93;46.45;;;;;;;7.30;82.48;98991.38;5088265;28;20389;-21
2021/11/28 06:56:47;;;;;;;103.22;46.65;;;;;;;7.46;82.44;99019.91;5088457;28;20051;-21
2021/11/28 06:59:12;;;;;;;104.63;45.67;;;;;;;7.37;82.70;99032.66;5090981;28;20040;-21
2021/11/28 07:01:38;;;;;;;100.05;42.42;;;;;;;7.43;82.14;99028.31;5092981;28;20036;-21
2021/11/28 07:04:03;;;;;;;107.63;44.55;;;;;;;6.75;86.04;99029.28;5092524;28;20035;-21
2021/11/28 07:06:29;;;;;;;112.55;45.90;;;;;;;6.74;87.02;99044.38;5092422;28;20093;-21
2021/11/28 07:08:54;;;;;;;126.82;48.08;;;;;;;7.26;85.33;99045.88;5092717;28;20118;-21
2021/11/28 07:11:20;;;;;;;119.82;46.13;;;;;;;7.18;85.73;99076.94;5091736;28;20043;-21
2021/11/28 07:13:46;;;;;;;172.88;66.68;;;;;;;7.28;85.33;99065.84;5092228;28;20028;-22
2021/11/28 07:16:11;;;;;;;125.78;51.30;;;;;;;7.32;84.82;99071.50;5074152;28;20560;-21
2021/11/28 07:18:39;;;;;;;123.45;49.00;;;;;;;7.44;84.61;99085.66;5091894;28;20039;-21
2021/11/28 07:21:05;;;;;;;127.03;49.88;;;;;;;7.23;86.34;99071.81;5091806;28;20502;-22
2021/11/28 07:23:30;;;;;;;108.15;43.10;;;;;;;7.27;84.76;99071.34;5091975;28;20032;-21
2021/11/28 07:25:55;;;;;;;112.75;44.63;;;;;;;7.04;86.25;99075.47;5091849;28;20036;-21
2021/11/28 07:28:21;;;;;;;126.30;51.67;;;;;;;7.03;86.30;99063.25;5091885;28;20032;-21
2021/11/28 07:30:49;;;;;;;123.70;47.15;;;;;;;7.23;87.03;99058.53;5091866;28;20047;-21
2021/11/28 07:33:15;;;;;;;;;;;;;;;7.47;85.26;99065.81;5091839;28;20415;-22
2021/11/28 07:35:40;;;;;;;122.05;46.90;;;;;;;7.28;85.21;99055.22;5091748;28;19919;-21
2021/11/28 07:38:06;;;;;;;132.98;50.58;;;;;;;7.40;85.76;99045.47;5091772;28;20472;-21
2021/11/28 07:40:31;;;;;;;116.53;47.58;;;;;;;7.53;85.58;99057.75;5091700;28;20032;-21
2021/11/28 07:42:57;;;;;;;124.85;50.13;;;;;;;7.65;85.11;99053.31;5091482;28;20058;-21
2021/11/28 07:45:22;;;;;;;124.50;49.22;;;;;;;7.60;84.23;99049.72;5091466;28;20043;-21
2021/11/28 07:47:48;;;;;;;106.38;45.35;;;;;;;7.50;85.18;99031.69;5091713;28;20468;-21
2021/11/28 07:50:14;;;;;;;113.05;47.70;;;;;;;7.62;84.35;99034.38;5091448;28;20491;-21
2021/11/28 07:52:39;;;;;;;107.63;45.58;;;;;;;7.59;84.80;99037.50;5091279;28;20036;-21
2021/11/28 07:55:05;;;;;;;105.57;46.58;;;;;;;8.22;83.46;99044.16;5091036;28;20028;-21
2021/11/28 07:57:31;;;;;;;107.78;46.28;;;;;;;8.54;82.31;99049.16;5091314;28;20470;-21
2021/11/28 07:59:56;;;;;;;111.07;46.90;;;;;;;8.58;81.90;99059.13;5073524;28;20050;-21
2021/11/28 08:02:22;;;;;;;103.45;45.67;;;;;;;8.91;80.60;99067.53;5090992;28;20020;-22
2021/11/28 08:04:50;;;;;;;112.38;51.60;;;;;;;9.22;80.24;99047.75;5091286;28;20031;-21
2021/11/28 08:07:16;;;;;;;105.80;49.08;;;;;;;8.65;81.11;99054.50;5073061;28;20032;-21
2021/11/28 08:09:41;;;;;;;95.50;43.08;;;;;;;8.84;81.27;99047.19;5072134;28;20086;-21
2021/11/28 08:12:07;;;;;;;98.35;42.42;;;;;;;8.76;80.85;99055.53;5091096;28;20035;-22
2021/11/28 08:14:34;;;;;;;86.95;40.20;;;;;;;8.82;80.80;99067.09;5090900;28;20039;-21
2021/11/28 08:17:00;;;;;;;84.30;41.20;;;;;;;9.11;81.02;99073.31;5090685;28;20510;-21
2021/11/28 08:19:26;;;;;;;92.13;42.15;;;;;;;9.33;79.46;99062.06;5090947;28;20032;-21
2021/11/28 08:21:51;;;;;;;84.53;42.47;;;;;;;9.36;80.29;99082.88;5090921;28;20036;-21
2021/11/28 08:24:16;;;;;;;87.55;40.25;;;;;;;9.65;79.21;99089.06;5091258;28;20483;-21
2021/11/28 08:26:42;;;;;;;79.50;37.33;;;;;;;9.60;77.97;99095.09;5090740;28;20407;-22
2021/11/28 08:29:07;;;;;;;79.57;39.28;;;;;;;9.47;79.34;99079.38;5090881;28;20059;-21
2021/11/28 08:31:33;;;;;;;73.78;35.67;;;;;;;9.72;78.50;99086.25;5090666;28;20876;-21
2021/11/28 08:33:58;;;;;;;77.60;38.15;;;;;;;9.94;78.14;99089.06;5090762;28;20102;-21
2021/11/28 08:36:24;;;;;;;86.57;46.55;;;;;;;10.21;76.82;99075.94;5090684;28;20039;-21
2021/11/28 08:38:51;;;;;;;70.25;37.35;;;;;;;10.45;75.94;99077.44;5090617;28;20172;-21
2021/11/28 08:41:16;;;;;;;70.75;36.70;;;;;;;10.47;76.02;99084.41;5089950;28;20039;-21
2021/11/28 08:43:42;;;;;;;70.05;37.28;;;;;;;10.44;74.70;99097.16;5090566;28;20032;-21
2021/11/28 08:46:08;;;;;;;66.35;35.35;;;;;;;10.47;75.04;99098.53;5090512;28;20024;-21
2021/11/28 08:48:33;;;;;;;77.00;37.92;;;;;;;10.38;75.69;99087.47;5090418;28;20023;-21
2021/11/28 08:50:59;;;;;;;63.50;32.90;;;;;;;10.17;76.78;99101.44;5090106;28;20116;-21
2021/11/28 08:53:25;;;;;;;62.17;32.88;;;;;;;10.38;75.70;99098.13;5072646;28;20139;-21
2021/11/28 08:55:50;;;;;;;66.45;35.30;;;;;;;10.40;76.54;99088.03;5071908;28;20423;-22
2021/11/28 08:58:16;;;;;;;63.53;32.47;;;;;;;9.98;77.63;99098.97;5090115;28;20112;-21
2021/11/28 09:00:42;;;;;;;61.50;32.53;;;;;;;10.12;76.53;99093.38;5089916;28;20385;-21
2021/11/28 09:03:07;;;;;;;64.93;31.10;;;;;;;10.42;76.43;99093.94;5089953;28;20028;-21
2021/11/28 09:05:33;;;;;;;63.63;34.88;;;;;;;10.72;74.95;99097.31;5090156;28;20036;-23
2021/11/28 09:08:00;;;;;;;94.47;45.97;;;;;;;10.73;75.02;99094.41;5090371;28;20034;-21
2021/11/28 09:10:26;;;;;;;65.20;36.63;;;;;;;10.83;74.12;99088.44;5090321;28;20068;-22
2021/11/28 09:12:51;;;;;;;69.93;35.50;;;;;;;10.98;74.36;99090.50;5090090;28;20028;-21
2021/11/28 09:15:17;;;;;;;59.53;32.50;;;;;;;11.02;74.39;99089.75;5089516;28;20032;-21
2021/11/28 09:17:50;;;;;;;63.78;32.95;;;;;;;10.76;75.71;99080.56;5089656;28;20031;-21
2021/11/28 09:20:20;;;;;;;59.90;31.02;;;;;;;10.83;74.72;99075.09;5089556;28;20035;-21
2021/11/28 09:25:14;;;;;;;59.03;31.08;;;;;;;11.36;73.25;99086.19;5089512;28;20036;-21
2021/11/28 09:27:44;;;;;;;58.60;32.92;;;;;;;11.43;73.05;99092.97;5089436;28;20036;-21
2021/11/28 09:30:09;;;;;;;62.67;33.33;;;;;;;11.34;73.30;99093.63;5089552;28;20040;-21
2021/11/28 09:32:35;;;;;;;58.90;30.85;;;;;;;11.63;72.82;99107.63;5089456;28;20028;-21
2021/11/28 09:35:00;;;;;;;59.15;32.20;;;;;;;11.62;72.87;99090.78;5089163;28;20098;-21
2021/11/28 09:37:26;;;;;;;59.03;33.28;;;;;;;11.80;71.96;99086.97;5089309;28;20059;-21
2021/11/28 09:39:51;;;;;;;60.17;32.17;;;;;;;11.66;73.29;99083.06;5089409;28;20036;-21
2021/11/28 09:42:21;;;;;;;56.05;31.65;;;;;;;11.39;74.62;99093.72;5088819;28;20474;-22
2021/11/28 09:44:47;;;;;;;56.08;29.95;;;;;;;11.63;73.01;99097.75;5089193;28;20116;-21
2021/11/28 09:47:12;;;;;;;58.75;32.42;;;;;;;11.84;73.18;99068.59;5071095;28;20032;-22
2021/11/28 09:49:40;;;;;;;61.80;32.58;;;;;;;12.11;71.72;99065.13;5089019;28;20450;-21
2021/11/28 09:52:08;;;;;;;53.72;28.50;;;;;;;12.12;72.28;99042.72;5089213;28;20039;-21
2021/11/28 09:54:37;;;;;;;55.55;28.00;;;;;;;12.30;72.28;99047.69;5054604;28;20582;-21
2021/11/28 09:57:03;;;;;;;50.42;26.58;;;;;;;12.97;69.97;99037.41;5088763;28;20036;-21
2021/11/28 09:59:28;;;;;;;46.30;24.92;;;;;;;12.99;69.84;99021.91;5070944;28;20415;-21
2021/11/28 10:01:54;;;;;;;53.45;30.70;;;;;;;13.44;69.06;99040.06;5070738;28;20035;-21
2021/11/28 10:04:20;;;;;;;48.78;27.95;;;;;;;13.55;67.96;99030.19;5070984;28;20039;-21
2021/11/28 10:06:45;;;;;;;49.88;29.08;;;;;;;13.72;67.79;99023.81;5071044;28;20032;-21
2021/11/28 10:09:12;;;;;;;46.13;27.45;;;;;;;13.78;66.41;99012.81;5054055;28;20024;-21
2021/11/28 10:11:40;;;;;;;47.03;26.58;;;;;;;13.82;65.58;99027.31;5088889;28;20032;-22
2021/11/28 10:14:10;;;;;;;45.28;25.77;;;;;;;13.91;65.73;99043.66;5088894;28;20088;-21
2021/11/28 10:16:35;;;;;;;48.65;27.30;;;;;;;13.85;65.59;99042.03;5088974;28;20124;-21
2021/11/28 10:19:01;;;;;;;46.88;26.67;;;;;;;13.62;65.43;99025.38;5088736;28;20024;-21
2021/11/28 10:21:27;;;;;;;58.25;30.90;;;;;;;13.55;66.73;99011.44;5088525;28;20036;-21
2021/11/28 10:24:11;;;;;;;52.72;29.25;;;;;;;14.07;66.50;99021.16;5088511;28;20509;-21
2021/11/28 10:26:53;;;;;;;50.30;28.23;;;;;;;14.20;65.84;99013.66;5088831;28;20040;-21
2021/11/28 10:29:19;;;;;;;62.03;34.45;;;;;;;14.07;65.12;99007.75;5088506;28;20043;-21
2021/11/28 10:31:55;;;;;;;59.97;34.22;;;;;;;13.94;66.47;99010.97;5088511;28;20119;-21
2021/11/28 10:34:22;;;;;;;52.13;29.00;;;;;;;13.74;66.03;98989.50;5088123;28;20133;-21
2021/11/28 10:36:50;;;;;;;61.17;31.60;;;;;;;14.32;67.88;98973.94;5088309;28;20028;-21
2021/11/28 10:39:22;;;;;;;56.45;32.20;;;;;;;14.91;63.68;99006.59;5088507;28;20109;-21
2021/11/28 10:41:52;;;;;;;56.38;32.70;;;;;;;14.74;63.99;99002.34;5091727;28;20125;-21
2021/11/28 10:44:23;;;;;;;54.22;32.25;;;;;;;14.68;63.38;98992.72;5093582;28;20055;-22
2021/11/28 10:46:49;;;;;;;55.85;32.50;;;;;;;14.54;64.87;98997.00;5088274;28;20036;-21
2021/11/28 10:49:16;;;;;;;50.45;30.10;;;;;;;14.78;64.32;98971.22;5104279;28;20020;-21
2021/11/28 10:51:46;;;;;;;56.60;31.17;;;;;;;14.91;63.73;98990.50;5107540;28;20040;-21
2021/11/28 10:54:25;;;;;;;100.10;79.47;;;;;;;14.75;64.31;98970.94;5106307;28;20536;-21
2021/11/28 10:57:00;;;;;;;64.38;38.58;;;;;;;14.39;64.62;98954.94;5089939;28;20020;-20
2021/11/28 10:59:26;;;;;;;56.15;35.33;;;;;;;14.64;64.20;98976.34;5107859;28;20111;-21
2021/11/28 11:01:51;;;;;;;63.35;36.85;;;;;;;14.57;64.39;98973.16;5089717;28;20039;-21
2021/11/28 11:04:18;;;;;;;64.78;38.20;;;;;;;15.01;63.47;98980.53;5107911;28;20486;-22
2021/11/28 11:06:44;;;;;;;58.95;36.67;;;;;;;14.97;63.03;98975.97;5107537;28;20031;-23
2021/11/28 11:09:23;;;;;;;54.38;33.67;;;;;;;15.35;62.35;98960.25;5107866;28;20047;-22
2021/11/28 11:11:51;;;;;;;61.70;36.17;;;;;;;15.62;59.56;98963.28;5107738;28;20406;-21
2021/11/28 11:14:16;;;;;;;60.58;40.70;;;;;;;15.67;59.93;98971.34;5108066;28;20085;-21
2021/11/28 11:16:43;;;;;;;49.83;29.33;;;;;;;15.77;58.98;98973.19;5089616;28;20031;-21
2021/11/28 11:19:36;;;;;;;43.03;27.27;;;;;;;15.96;59.75;98983.25;5107431;28;20024;-22
2021/11/28 11:22:12;;;;;;;48.25;29.83;;;;;;;16.12;59.06;98978.53;5103958;28;20085;-21